sensor_id;sensor_type;location;lat;lon;timestamp;P1;durP1;ratioP1;P2;durP2;ratioP2
42600;SDS011;28229;48.856;9.088;2022-09-21T00:03:36;6.07;;;4.67;;
42600;SDS011;28229;48.856;9.088;2022-09-21T00:06:05;5.63;;;4.40;;
42600;SDS011;28229;48.856;9.088;2022-09-21T00:08:33;7.57;;;4.40;;
42600;SDS011;28229;48.856;9.088;2022-09-21T00:11:00;6.87;;;4.70;;
42600;SDS011;28229;48.856;9.088;2022-09-21T00:13:26;6.03;;;4.13;;
42600;SDS011;28229;48.856;9.088;2022-09-21T00:15:55;4.80;;;4.30;;
42600;SDS011;28229;48.856;9.088;2022-09-21T00:18:21;7.00;;;4.80;;
42600;SDS011;28229;48.856;9.088;2022-09-21T00:20:48;5.73;;;4.50;;
42600;SDS011;28229;48.856;9.088;2022-09-21T00:23:14;5.10;;;4.33;;
42600;SDS011;28229;48.856;9.088;2022-09-21T00:25:40;5.97;;;4.30;;
42600;SDS011;28229;48.856;9.088;2022-09-21T00:28:06;5.87;;;4.33;;
42600;SDS011;28229;48.856;9.088;2022-09-21T00:30:32;5.27;;;4.60;;
42600;SDS011;28229;48.856;9.088;2022-09-21T00:32:58;4.90;;;4.33;;
42600;SDS011;28229;48.856;9.088;2022-09-21T00:35:24;7.13;;;4.80;;
42600;SDS011;28229;48.856;9.088;2022-09-21T00:37:49;5.00;;;4.37;;
42600;SDS011;28229;48.856;9.088;2022-09-21T00:40:15;5.57;;;4.13;;
42600;SDS011;28229;48.856;9.088;2022-09-21T00:42:41;4.97;;;4.50;;
42600;SDS011;28229;48.856;9.088;2022-09-21T00:45:09;5.10;;;4.57;;
42600;SDS011;28229;48.856;9.088;2022-09-21T00:47:46;6.63;;;4.87;;
42600;SDS011;28229;48.856;9.088;2022-09-21T00:50:16;6.40;;;4.27;;
42600;SDS011;28229;48.856;9.088;2022-09-21T00:52:47;8.33;;;4.67;;
42600;SDS011;28229;48.856;9.088;2022-09-21T00:57:58;8.43;;;4.77;;
42600;SDS011;28229;48.856;9.088;2022-09-21T01:00:30;4.90;;;4.40;;
42600;SDS011;28229;48.856;9.088;2022-09-21T01:02:56;4.73;;;4.30;;
42600;SDS011;28229;48.856;9.088;2022-09-21T01:05:40;6.37;;;4.47;;
42600;SDS011;28229;48.856;9.088;2022-09-21T01:08:06;5.93;;;4.03;;
42600;SDS011;28229;48.856;9.088;2022-09-21T01:10:40;5.53;;;4.33;;
42600;SDS011;28229;48.856;9.088;2022-09-21T01:13:12;4.87;;;4.30;;
42600;SDS011;28229;48.856;9.088;2022-09-21T01:18:27;6.10;;;4.90;;
42600;SDS011;28229;48.856;9.088;2022-09-21T01:29:31;6.83;;;4.60;;
42600;SDS011;28229;48.856;9.088;2022-09-21T01:32:25;6.80;;;4.93;;
42600;SDS011;28229;48.856;9.088;2022-09-21T01:40:16;5.63;;;4.50;;
42600;SDS011;28229;48.856;9.088;2022-09-21T01:42:49;5.20;;;4.37;;
42600;SDS011;28229;48.856;9.088;2022-09-21T01:45:18;4.33;;;3.93;;
42600;SDS011;28229;48.856;9.088;2022-09-21T01:47:50;5.17;;;4.07;;
42600;SDS011;28229;48.856;9.088;2022-09-21T01:50:22;4.77;;;4.27;;
42600;SDS011;28229;48.856;9.088;2022-09-21T01:52:53;5.10;;;4.00;;
42600;SDS011;28229;48.856;9.088;2022-09-21T01:55:26;6.10;;;4.40;;
42600;SDS011;28229;48.856;9.088;2022-09-21T01:58:05;5.10;;;4.20;;
42600;SDS011;28229;48.856;9.088;2022-09-21T02:00:39;7.47;;;4.67;;
42600;SDS011;28229;48.856;9.088;2022-09-21T02:03:11;5.33;;;4.07;;
42600;SDS011;28229;48.856;9.088;2022-09-21T02:05:40;5.33;;;4.13;;
42600;SDS011;28229;48.856;9.088;2022-09-21T02:08:07;7.90;;;5.00;;
42600;SDS011;28229;48.856;9.088;2022-09-21T02:10:44;5.23;;;4.07;;
42600;SDS011;28229;48.856;9.088;2022-09-21T02:13:14;4.97;;;4.00;;
42600;SDS011;28229;48.856;9.088;2022-09-21T02:18:51;6.23;;;4.37;;
42600;SDS011;28229;48.856;9.088;2022-09-21T02:24:12;5.73;;;4.43;;
42600;SDS011;28229;48.856;9.088;2022-09-21T02:26:40;9.93;;;4.73;;
42600;SDS011;28229;48.856;9.088;2022-09-21T02:29:21;6.30;;;4.97;;
42600;SDS011;28229;48.856;9.088;2022-09-21T02:31:54;6.03;;;4.67;;
42600;SDS011;28229;48.856;9.088;2022-09-21T02:34:38;6.57;;;4.57;;
42600;SDS011;28229;48.856;9.088;2022-09-21T02:37:15;4.83;;;4.13;;
42600;SDS011;28229;48.856;9.088;2022-09-21T02:39:49;5.80;;;4.70;;
42600;SDS011;28229;48.856;9.088;2022-09-21T02:42:16;5.17;;;4.10;;
42600;SDS011;28229;48.856;9.088;2022-09-21T02:44:52;6.43;;;4.63;;
42600;SDS011;28229;48.856;9.088;2022-09-21T02:47:42;6.20;;;4.47;;
42600;SDS011;28229;48.856;9.088;2022-09-21T02:50:17;6.40;;;4.00;;
42600;SDS011;28229;48.856;9.088;2022-09-21T02:52:47;6.07;;;4.67;;
42600;SDS011;28229;48.856;9.088;2022-09-21T02:55:13;4.93;;;4.23;;
42600;SDS011;28229;48.856;9.088;2022-09-21T02:57:42;4.47;;;4.07;;
42600;SDS011;28229;48.856;9.088;2022-09-21T03:00:10;5.77;;;4.00;;
42600;SDS011;28229;48.856;9.088;2022-09-21T03:02:40;5.77;;;4.20;;
42600;SDS011;28229;48.856;9.088;2022-09-21T03:05:14;5.27;;;4.10;;
42600;SDS011;28229;48.856;9.088;2022-09-21T03:07:40;5.87;;;4.10;;
42600;SDS011;28229;48.856;9.088;2022-09-21T03:10:06;5.33;;;4.17;;
42600;SDS011;28229;48.856;9.088;2022-09-21T03:12:33;6.17;;;4.47;;
42600;SDS011;28229;48.856;9.088;2022-09-21T03:14:59;5.37;;;4.07;;
42600;SDS011;28229;48.856;9.088;2022-09-21T03:17:25;6.83;;;3.80;;
42600;SDS011;28229;48.856;9.088;2022-09-21T03:19:52;5.80;;;4.10;;
42600;SDS011;28229;48.856;9.088;2022-09-21T03:22:22;4.40;;;4.00;;
42600;SDS011;28229;48.856;9.088;2022-09-21T03:24:48;5.33;;;3.87;;
42600;SDS011;28229;48.856;9.088;2022-09-21T03:27:19;6.57;;;3.97;;
42600;SDS011;28229;48.856;9.088;2022-09-21T03:29:46;5.87;;;4.30;;
42600;SDS011;28229;48.856;9.088;2022-09-21T03:32:12;7.90;;;4.20;;
42600;SDS011;28229;48.856;9.088;2022-09-21T03:34:39;5.40;;;4.17;;
42600;SDS011;28229;48.856;9.088;2022-09-21T03:37:05;6.33;;;4.07;;
42600;SDS011;28229;48.856;9.088;2022-09-21T03:39:32;6.40;;;4.07;;
42600;SDS011;28229;48.856;9.088;2022-09-21T03:41:59;6.10;;;4.33;;
42600;SDS011;28229;48.856;9.088;2022-09-21T03:44:26;5.83;;;4.33;;
42600;SDS011;28229;48.856;9.088;2022-09-21T03:46:52;4.80;;;4.10;;
42600;SDS011;28229;48.856;9.088;2022-09-21T03:49:19;6.93;;;4.70;;
42600;SDS011;28229;48.856;9.088;2022-09-21T03:51:45;7.90;;;4.03;;
42600;SDS011;28229;48.856;9.088;2022-09-21T03:54:12;4.37;;;3.97;;
42600;SDS011;28229;48.856;9.088;2022-09-21T03:56:37;4.90;;;3.90;;
42600;SDS011;28229;48.856;9.088;2022-09-21T03:59:03;5.77;;;4.30;;
42600;SDS011;28229;48.856;9.088;2022-09-21T04:01:29;6.10;;;4.30;;
42600;SDS011;28229;48.856;9.088;2022-09-21T04:03:55;5.53;;;4.57;;
42600;SDS011;28229;48.856;9.088;2022-09-21T04:06:21;6.93;;;3.90;;
42600;SDS011;28229;48.856;9.088;2022-09-21T04:08:47;5.30;;;4.23;;
42600;SDS011;28229;48.856;9.088;2022-09-21T04:11:14;6.70;;;4.50;;
42600;SDS011;28229;48.856;9.088;2022-09-21T04:13:42;7.10;;;4.47;;
42600;SDS011;28229;48.856;9.088;2022-09-21T04:16:09;5.37;;;4.67;;
42600;SDS011;28229;48.856;9.088;2022-09-21T04:18:35;5.13;;;4.10;;
42600;SDS011;28229;48.856;9.088;2022-09-21T04:21:03;7.27;;;4.50;;
42600;SDS011;28229;48.856;9.088;2022-09-21T04:23:30;6.37;;;4.23;;
42600;SDS011;28229;48.856;9.088;2022-09-21T04:25:56;5.83;;;4.23;;
42600;SDS011;28229;48.856;9.088;2022-09-21T04:28:22;5.20;;;4.00;;
42600;SDS011;28229;48.856;9.088;2022-09-21T04:30:52;6.10;;;4.73;;
42600;SDS011;28229;48.856;9.088;2022-09-21T04:33:23;6.87;;;4.97;;
42600;SDS011;28229;48.856;9.088;2022-09-21T04:35:55;7.07;;;5.80;;
42600;SDS011;28229;48.856;9.088;2022-09-21T04:38:21;9.67;;;6.10;;
42600;SDS011;28229;48.856;9.088;2022-09-21T04:40:56;8.13;;;5.77;;
42600;SDS011;28229;48.856;9.088;2022-09-21T04:43:24;8.60;;;5.70;;
42600;SDS011;28229;48.856;9.088;2022-09-21T04:45:50;8.23;;;5.90;;
42600;SDS011;28229;48.856;9.088;2022-09-21T04:48:16;12.40;;;7.03;;
42600;SDS011;28229;48.856;9.088;2022-09-21T04:50:42;8.43;;;6.50;;
42600;SDS011;28229;48.856;9.088;2022-09-21T04:53:09;8.67;;;6.63;;
42600;SDS011;28229;48.856;9.088;2022-09-21T04:55:34;10.23;;;6.20;;
42600;SDS011;28229;48.856;9.088;2022-09-21T04:58:01;6.93;;;5.93;;
42600;SDS011;28229;48.856;9.088;2022-09-21T05:00:26;7.43;;;5.63;;
42600;SDS011;28229;48.856;9.088;2022-09-21T05:02:52;7.27;;;5.70;;
42600;SDS011;28229;48.856;9.088;2022-09-21T05:05:18;8.67;;;5.43;;
42600;SDS011;28229;48.856;9.088;2022-09-21T05:07:44;8.80;;;5.30;;
42600;SDS011;28229;48.856;9.088;2022-09-21T05:10:10;9.10;;;5.13;;
42600;SDS011;28229;48.856;9.088;2022-09-21T05:12:36;6.57;;;5.17;;
42600;SDS011;28229;48.856;9.088;2022-09-21T05:15:02;9.20;;;5.20;;
42600;SDS011;28229;48.856;9.088;2022-09-21T05:17:28;8.90;;;5.20;;
42600;SDS011;28229;48.856;9.088;2022-09-21T05:19:55;6.43;;;5.00;;
42600;SDS011;28229;48.856;9.088;2022-09-21T05:22:21;9.67;;;5.60;;
42600;SDS011;28229;48.856;9.088;2022-09-21T05:24:47;7.23;;;5.07;;
42600;SDS011;28229;48.856;9.088;2022-09-21T05:27:13;8.20;;;5.10;;
42600;SDS011;28229;48.856;9.088;2022-09-21T05:29:39;7.50;;;4.97;;
42600;SDS011;28229;48.856;9.088;2022-09-21T05:32:19;6.30;;;4.93;;
42600;SDS011;28229;48.856;9.088;2022-09-21T05:35:06;6.53;;;5.37;;
42600;SDS011;28229;48.856;9.088;2022-09-21T05:40:16;7.57;;;5.47;;
42600;SDS011;28229;48.856;9.088;2022-09-21T05:42:42;9.30;;;6.10;;
42600;SDS011;28229;48.856;9.088;2022-09-21T05:45:12;7.27;;;6.17;;
42600;SDS011;28229;48.856;9.088;2022-09-21T05:55:50;7.67;;;4.97;;
42600;SDS011;28229;48.856;9.088;2022-09-21T05:58:44;7.07;;;4.50;;
42600;SDS011;28229;48.856;9.088;2022-09-21T06:03:53;9.47;;;5.63;;
42600;SDS011;28229;48.856;9.088;2022-09-21T06:06:20;7.47;;;6.00;;
42600;SDS011;28229;48.856;9.088;2022-09-21T06:08:46;8.70;;;6.40;;
42600;SDS011;28229;48.856;9.088;2022-09-21T06:11:12;9.30;;;7.00;;
42600;SDS011;28229;48.856;9.088;2022-09-21T06:13:38;8.20;;;6.37;;
42600;SDS011;28229;48.856;9.088;2022-09-21T06:16:06;8.60;;;7.43;;
42600;SDS011;28229;48.856;9.088;2022-09-21T06:18:35;10.80;;;7.60;;
42600;SDS011;28229;48.856;9.088;2022-09-21T06:21:03;9.83;;;7.50;;
42600;SDS011;28229;48.856;9.088;2022-09-21T06:23:29;12.00;;;7.30;;
42600;SDS011;28229;48.856;9.088;2022-09-21T06:25:55;9.30;;;6.90;;
42600;SDS011;28229;48.856;9.088;2022-09-21T06:28:20;7.67;;;6.37;;
42600;SDS011;28229;48.856;9.088;2022-09-21T06:30:50;7.63;;;5.80;;
42600;SDS011;28229;48.856;9.088;2022-09-21T06:33:17;9.07;;;6.50;;
42600;SDS011;28229;48.856;9.088;2022-09-21T06:35:55;8.17;;;6.40;;
42600;SDS011;28229;48.856;9.088;2022-09-21T06:38:23;7.90;;;6.27;;
42600;SDS011;28229;48.856;9.088;2022-09-21T06:40:50;9.10;;;6.20;;
42600;SDS011;28229;48.856;9.088;2022-09-21T06:43:17;10.80;;;7.00;;
42600;SDS011;28229;48.856;9.088;2022-09-21T06:45:51;6.80;;;5.87;;
42600;SDS011;28229;48.856;9.088;2022-09-21T06:48:18;10.57;;;6.40;;
42600;SDS011;28229;48.856;9.088;2022-09-21T06:50:44;9.13;;;6.20;;
42600;SDS011;28229;48.856;9.088;2022-09-21T06:53:10;8.93;;;6.00;;
42600;SDS011;28229;48.856;9.088;2022-09-21T06:55:35;9.43;;;6.33;;
42600;SDS011;28229;48.856;9.088;2022-09-21T06:58:02;9.43;;;6.43;;
42600;SDS011;28229;48.856;9.088;2022-09-21T07:00:28;8.37;;;6.00;;
42600;SDS011;28229;48.856;9.088;2022-09-21T07:02:55;11.60;;;7.10;;
42600;SDS011;28229;48.856;9.088;2022-09-21T07:05:21;10.60;;;7.13;;
42600;SDS011;28229;48.856;9.088;2022-09-21T07:07:47;8.33;;;6.73;;
42600;SDS011;28229;48.856;9.088;2022-09-21T07:10:12;9.33;;;6.73;;
42600;SDS011;28229;48.856;9.088;2022-09-21T07:12:38;9.10;;;6.90;;
42600;SDS011;28229;48.856;9.088;2022-09-21T07:15:06;10.13;;;7.10;;
42600;SDS011;28229;48.856;9.088;2022-09-21T07:17:32;11.03;;;7.37;;
42600;SDS011;28229;48.856;9.088;2022-09-21T07:20:00;8.87;;;6.57;;
42600;SDS011;28229;48.856;9.088;2022-09-21T07:22:32;10.07;;;6.77;;
42600;SDS011;28229;48.856;9.088;2022-09-21T07:25:02;8.27;;;6.30;;
42600;SDS011;28229;48.856;9.088;2022-09-21T07:27:30;11.00;;;6.30;;
42600;SDS011;28229;48.856;9.088;2022-09-21T07:29:57;11.07;;;6.83;;
42600;SDS011;28229;48.856;9.088;2022-09-21T07:32:23;7.70;;;6.20;;
42600;SDS011;28229;48.856;9.088;2022-09-21T07:34:50;7.47;;;6.43;;
42600;SDS011;28229;48.856;9.088;2022-09-21T07:37:20;9.20;;;6.70;;
42600;SDS011;28229;48.856;9.088;2022-09-21T07:39:48;8.87;;;7.07;;
42600;SDS011;28229;48.856;9.088;2022-09-21T07:42:14;9.77;;;6.57;;
42600;SDS011;28229;48.856;9.088;2022-09-21T07:44:40;9.63;;;6.93;;
42600;SDS011;28229;48.856;9.088;2022-09-21T07:47:06;9.17;;;6.97;;
42600;SDS011;28229;48.856;9.088;2022-09-21T07:49:32;8.47;;;6.77;;
42600;SDS011;28229;48.856;9.088;2022-09-21T07:52:00;7.60;;;6.27;;
42600;SDS011;28229;48.856;9.088;2022-09-21T07:54:26;6.90;;;6.20;;
42600;SDS011;28229;48.856;9.088;2022-09-21T07:56:52;9.07;;;6.53;;
42600;SDS011;28229;48.856;9.088;2022-09-21T07:59:36;7.70;;;6.13;;
42600;SDS011;28229;48.856;9.088;2022-09-21T08:02:02;8.13;;;7.10;;
42600;SDS011;28229;48.856;9.088;2022-09-21T08:04:28;9.17;;;7.07;;
42600;SDS011;28229;48.856;9.088;2022-09-21T08:06:54;9.57;;;6.67;;
42600;SDS011;28229;48.856;9.088;2022-09-21T08:09:20;8.03;;;6.63;;
42600;SDS011;28229;48.856;9.088;2022-09-21T08:11:46;10.03;;;6.53;;
42600;SDS011;28229;48.856;9.088;2022-09-21T08:14:12;8.63;;;6.17;;
42600;SDS011;28229;48.856;9.088;2022-09-21T08:16:44;6.80;;;6.10;;
42600;SDS011;28229;48.856;9.088;2022-09-21T08:19:11;5.90;;;5.30;;
42600;SDS011;28229;48.856;9.088;2022-09-21T08:21:38;5.53;;;5.03;;
42600;SDS011;28229;48.856;9.088;2022-09-21T08:24:05;6.73;;;4.67;;
42600;SDS011;28229;48.856;9.088;2022-09-21T08:26:31;6.17;;;3.83;;
42600;SDS011;28229;48.856;9.088;2022-09-21T08:28:58;6.57;;;4.37;;
42600;SDS011;28229;48.856;9.088;2022-09-21T08:31:24;7.53;;;4.33;;
42600;SDS011;28229;48.856;9.088;2022-09-21T08:33:50;5.93;;;3.83;;
42600;SDS011;28229;48.856;9.088;2022-09-21T08:36:17;5.10;;;3.80;;
42600;SDS011;28229;48.856;9.088;2022-09-21T08:38:44;5.70;;;4.07;;
42600;SDS011;28229;48.856;9.088;2022-09-21T08:41:21;6.07;;;4.53;;
42600;SDS011;28229;48.856;9.088;2022-09-21T08:43:52;7.30;;;4.73;;
42600;SDS011;28229;48.856;9.088;2022-09-21T08:46:30;5.73;;;4.67;;
42600;SDS011;28229;48.856;9.088;2022-09-21T08:48:59;6.70;;;4.27;;
42600;SDS011;28229;48.856;9.088;2022-09-21T08:51:28;4.13;;;3.60;;
42600;SDS011;28229;48.856;9.088;2022-09-21T08:53:58;5.70;;;3.27;;
42600;SDS011;28229;48.856;9.088;2022-09-21T08:56:27;4.90;;;3.90;;
42600;SDS011;28229;48.856;9.088;2022-09-21T08:58:55;7.70;;;4.17;;
42600;SDS011;28229;48.856;9.088;2022-09-21T09:01:27;4.17;;;3.77;;
42600;SDS011;28229;48.856;9.088;2022-09-21T09:17:34;3.77;;;2.60;;
42600;SDS011;28229;48.856;9.088;2022-09-21T09:20:15;7.67;;;6.20;;
42600;SDS011;28229;48.856;9.088;2022-09-21T13:17:31;1.07;;;0.97;;
42600;SDS011;28229;48.856;9.088;2022-09-21T13:20:04;1.40;;;1.30;;
42600;SDS011;28229;48.856;9.088;2022-09-21T13:22:41;1.13;;;0.87;;
42600;SDS011;28229;48.856;9.088;2022-09-21T13:25:18;0.83;;;0.80;;
42600;SDS011;28229;48.856;9.088;2022-09-21T13:27:59;0.97;;;0.70;;
42600;SDS011;28229;48.856;9.088;2022-09-21T13:38:27;0.80;;;0.80;;
42600;SDS011;28229;48.856;9.088;2022-09-21T13:43:46;0.90;;;0.73;;
42600;SDS011;28229;48.856;9.088;2022-09-21T13:51:48;0.70;;;0.70;;
42600;SDS011;28229;48.856;9.088;2022-09-21T13:54:14;0.80;;;0.80;;
42600;SDS011;28229;48.856;9.088;2022-09-21T13:56:41;1.33;;;0.90;;
42600;SDS011;28229;48.856;9.088;2022-09-21T13:59:18;0.80;;;0.80;;
42600;SDS011;28229;48.856;9.088;2022-09-21T14:01:48;1.27;;;0.82;;
42600;SDS011;28229;48.856;9.088;2022-09-21T14:04:16;0.70;;;0.70;;
42600;SDS011;28229;48.856;9.088;2022-09-21T14:06:47;1.33;;;0.90;;
42600;SDS011;28229;48.856;9.088;2022-09-21T14:09:22;0.90;;;0.90;;
42600;SDS011;28229;48.856;9.088;2022-09-21T14:11:53;1.30;;;1.20;;
42600;SDS011;28229;48.856;9.088;2022-09-21T14:14:23;1.10;;;1.00;;
42600;SDS011;28229;48.856;9.088;2022-09-21T14:16:56;1.60;;;0.77;;
42600;SDS011;28229;48.856;9.088;2022-09-21T14:24:44;0.90;;;0.90;;
42600;SDS011;28229;48.856;9.088;2022-09-21T14:27:29;2.43;;;0.97;;
42600;SDS011;28229;48.856;9.088;2022-09-21T14:35:32;1.17;;;0.70;;
42600;SDS011;28229;48.856;9.088;2022-09-21T14:38:45;0.93;;;0.70;;
42600;SDS011;28229;48.856;9.088;2022-09-21T14:40:58;0.63;;;0.63;;
42600;SDS011;28229;48.856;9.088;2022-09-21T14:43:32;1.60;;;1.50;;
42600;SDS011;28229;48.856;9.088;2022-09-21T14:49:12;2.37;;;1.20;;
42600;SDS011;28229;48.856;9.088;2022-09-21T14:51:53;5.97;;;4.70;;
42600;SDS011;28229;48.856;9.088;2022-09-21T15:00:12;2.03;;;1.50;;
42600;SDS011;28229;48.856;9.088;2022-09-21T15:02:47;1.10;;;1.00;;
42600;SDS011;28229;48.856;9.088;2022-09-21T15:08:09;0.80;;;0.80;;
42600;SDS011;28229;48.856;9.088;2022-09-21T15:11:02;1.03;;;0.93;;
42600;SDS011;28229;48.856;9.088;2022-09-21T15:13:55;1.33;;;0.90;;
42600;SDS011;28229;48.856;9.088;2022-09-21T15:16:47;0.87;;;0.80;;
42600;SDS011;28229;48.856;9.088;2022-09-21T15:19:28;2.07;;;0.90;;
42600;SDS011;28229;48.856;9.088;2022-09-21T15:24:55;0.83;;;0.80;;
42600;SDS011;28229;48.856;9.088;2022-09-21T15:27:25;0.80;;;0.80;;
42600;SDS011;28229;48.856;9.088;2022-09-21T15:29:58;1.93;;;0.87;;
42600;SDS011;28229;48.856;9.088;2022-09-21T15:32:31;0.90;;;0.80;;
42600;SDS011;28229;48.856;9.088;2022-09-21T15:37:42;0.70;;;0.67;;
42600;SDS011;28229;48.856;9.088;2022-09-21T15:40:20;2.97;;;1.00;;
42600;SDS011;28229;48.856;9.088;2022-09-21T15:48:27;1.00;;;0.87;;
42600;SDS011;28229;48.856;9.088;2022-09-21T15:51:09;0.90;;;0.90;;
42600;SDS011;28229;48.856;9.088;2022-09-21T15:53:45;1.37;;;0.90;;
42600;SDS011;28229;48.856;9.088;2022-09-21T15:56:18;1.57;;;1.00;;
42600;SDS011;28229;48.856;9.088;2022-09-21T15:58:47;0.90;;;0.90;;
42600;SDS011;28229;48.856;9.088;2022-09-21T16:01:15;0.80;;;0.80;;
42600;SDS011;28229;48.856;9.088;2022-09-21T16:04:23;1.10;;;1.00;;
42600;SDS011;28229;48.856;9.088;2022-09-21T16:07:03;1.20;;;1.10;;
42600;SDS011;28229;48.856;9.088;2022-09-21T16:09:47;1.03;;;1.00;;
42600;SDS011;28229;48.856;9.088;2022-09-21T16:15:25;2.10;;;1.00;;
42600;SDS011;28229;48.856;9.088;2022-09-21T16:17:59;3.07;;;1.10;;
42600;SDS011;28229;48.856;9.088;2022-09-21T16:20:40;1.27;;;1.17;;
42600;SDS011;28229;48.856;9.088;2022-09-21T16:23:19;1.83;;;1.10;;
42600;SDS011;28229;48.856;9.088;2022-09-21T16:25:56;1.20;;;1.10;;
42600;SDS011;28229;48.856;9.088;2022-09-21T16:28:27;2.30;;;1.30;;
42600;SDS011;28229;48.856;9.088;2022-09-21T16:31:21;1.17;;;1.00;;
42600;SDS011;28229;48.856;9.088;2022-09-21T16:38:50;1.10;;;1.10;;
42600;SDS011;28229;48.856;9.088;2022-09-21T16:41:20;0.80;;;0.80;;
42600;SDS011;28229;48.856;9.088;2022-09-21T16:43:49;0.90;;;0.90;;
42600;SDS011;28229;48.856;9.088;2022-09-21T16:46:15;1.10;;;1.10;;
42600;SDS011;28229;48.856;9.088;2022-09-21T16:48:43;1.40;;;0.80;;
42600;SDS011;28229;48.856;9.088;2022-09-21T16:51:13;1.50;;;1.07;;
42600;SDS011;28229;48.856;9.088;2022-09-21T16:53:40;2.90;;;1.20;;
42600;SDS011;28229;48.856;9.088;2022-09-21T16:56:12;1.20;;;1.10;;
42600;SDS011;28229;48.856;9.088;2022-09-21T16:58:40;2.63;;;1.47;;
42600;SDS011;28229;48.856;9.088;2022-09-21T17:01:11;1.43;;;1.30;;
42600;SDS011;28229;48.856;9.088;2022-09-21T17:03:40;1.13;;;1.03;;
42600;SDS011;28229;48.856;9.088;2022-09-21T17:06:12;1.40;;;1.30;;
42600;SDS011;28229;48.856;9.088;2022-09-21T17:08:40;1.37;;;1.10;;
42600;SDS011;28229;48.856;9.088;2022-09-21T17:11:06;1.00;;;1.00;;
42600;SDS011;28229;48.856;9.088;2022-09-21T17:13:31;1.73;;;1.50;;
42600;SDS011;28229;48.856;9.088;2022-09-21T17:15:57;2.00;;;1.30;;
42600;SDS011;28229;48.856;9.088;2022-09-21T17:18:23;3.17;;;1.63;;
42600;SDS011;28229;48.856;9.088;2022-09-21T17:20:49;1.40;;;1.30;;
42600;SDS011;28229;48.856;9.088;2022-09-21T17:23:15;1.30;;;1.20;;
42600;SDS011;28229;48.856;9.088;2022-09-21T17:25:41;2.50;;;1.30;;
42600;SDS011;28229;48.856;9.088;2022-09-21T17:28:21;2.10;;;1.60;;
42600;SDS011;28229;48.856;9.088;2022-09-21T17:30:51;2.63;;;2.10;;
42600;SDS011;28229;48.856;9.088;2022-09-21T17:33:17;2.57;;;2.00;;
42600;SDS011;28229;48.856;9.088;2022-09-21T17:35:46;2.63;;;2.07;;
42600;SDS011;28229;48.856;9.088;2022-09-21T17:38:13;3.13;;;2.13;;
42600;SDS011;28229;48.856;9.088;2022-09-21T17:40:38;2.00;;;1.80;;
42600;SDS011;28229;48.856;9.088;2022-09-21T17:48:43;3.30;;;1.60;;
42600;SDS011;28229;48.856;9.088;2022-09-21T17:51:09;1.60;;;1.20;;
42600;SDS011;28229;48.856;9.088;2022-09-21T17:53:35;2.10;;;1.30;;
42600;SDS011;28229;48.856;9.088;2022-09-21T17:58:38;2.00;;;1.80;;
42600;SDS011;28229;48.856;9.088;2022-09-21T18:01:12;2.17;;;1.97;;
42600;SDS011;28229;48.856;9.088;2022-09-21T18:03:55;2.63;;;1.90;;
42600;SDS011;28229;48.856;9.088;2022-09-21T18:06:22;2.43;;;2.00;;
42600;SDS011;28229;48.856;9.088;2022-09-21T18:08:48;2.13;;;1.93;;
42600;SDS011;28229;48.856;9.088;2022-09-21T18:19:44;4.10;;;2.93;;
42600;SDS011;28229;48.856;9.088;2022-09-21T18:22:33;4.30;;;3.03;;
42600;SDS011;28229;48.856;9.088;2022-09-21T18:25:08;3.90;;;2.70;;
42600;SDS011;28229;48.856;9.088;2022-09-21T18:27:40;4.50;;;3.17;;
42600;SDS011;28229;48.856;9.088;2022-09-21T18:30:10;4.70;;;3.23;;
42600;SDS011;28229;48.856;9.088;2022-09-21T18:41:10;8.07;;;4.73;;
42600;SDS011;28229;48.856;9.088;2022-09-21T18:49:41;4.43;;;3.47;;
42600;SDS011;28229;48.856;9.088;2022-09-21T18:52:43;3.10;;;2.80;;
42600;SDS011;28229;48.856;9.088;2022-09-21T18:55:27;3.00;;;2.63;;
42600;SDS011;28229;48.856;9.088;2022-09-21T18:57:57;3.57;;;3.00;;
42600;SDS011;28229;48.856;9.088;2022-09-21T19:00:25;3.47;;;2.93;;
42600;SDS011;28229;48.856;9.088;2022-09-21T19:02:59;3.20;;;2.90;;
42600;SDS011;28229;48.856;9.088;2022-09-21T19:05:27;4.80;;;4.17;;
42600;SDS011;28229;48.856;9.088;2022-09-21T19:07:55;3.60;;;3.30;;
42600;SDS011;28229;48.856;9.088;2022-09-21T19:10:50;3.60;;;3.30;;
42600;SDS011;28229;48.856;9.088;2022-09-21T19:16:28;4.93;;;4.37;;
42600;SDS011;28229;48.856;9.088;2022-09-21T19:24:40;6.57;;;5.33;;
42600;SDS011;28229;48.856;9.088;2022-09-21T19:27:16;6.00;;;5.50;;
42600;SDS011;28229;48.856;9.088;2022-09-21T19:32:44;5.97;;;4.70;;
42600;SDS011;28229;48.856;9.088;2022-09-21T19:35:19;6.43;;;5.30;;
42600;SDS011;28229;48.856;9.088;2022-09-21T19:37:47;5.07;;;4.67;;
42600;SDS011;28229;48.856;9.088;2022-09-21T19:40:15;7.03;;;5.83;;
42600;SDS011;28229;48.856;9.088;2022-09-21T19:42:47;7.37;;;5.60;;
42600;SDS011;28229;48.856;9.088;2022-09-21T19:45:27;6.60;;;5.40;;
42600;SDS011;28229;48.856;9.088;2022-09-21T19:47:56;6.03;;;5.00;;
42600;SDS011;28229;48.856;9.088;2022-09-21T19:50:32;6.90;;;4.83;;
42600;SDS011;28229;48.856;9.088;2022-09-21T19:53:05;6.10;;;5.03;;
42600;SDS011;28229;48.856;9.088;2022-09-21T19:55:52;6.90;;;5.67;;
42600;SDS011;28229;48.856;9.088;2022-09-21T19:58:41;6.23;;;4.70;;
42600;SDS011;28229;48.856;9.088;2022-09-21T20:01:25;3.70;;;3.40;;
42600;SDS011;28229;48.856;9.088;2022-09-21T20:03:53;3.20;;;2.90;;
42600;SDS011;28229;48.856;9.088;2022-09-21T20:06:28;4.47;;;2.87;;
42600;SDS011;28229;48.856;9.088;2022-09-21T20:09:11;6.10;;;3.40;;
42600;SDS011;28229;48.856;9.088;2022-09-21T20:17:17;3.73;;;3.20;;
42600;SDS011;28229;48.856;9.088;2022-09-21T20:19:58;3.77;;;3.17;;
42600;SDS011;28229;48.856;9.088;2022-09-21T20:22:48;5.77;;;3.63;;
42600;SDS011;28229;48.856;9.088;2022-09-21T20:28:06;6.27;;;4.20;;
42600;SDS011;28229;48.856;9.088;2022-09-21T20:30:33;4.53;;;3.70;;
42600;SDS011;28229;48.856;9.088;2022-09-21T20:33:04;4.47;;;3.70;;
42600;SDS011;28229;48.856;9.088;2022-09-21T20:35:32;4.33;;;3.90;;
42600;SDS011;28229;48.856;9.088;2022-09-21T20:37:59;4.83;;;4.33;;
42600;SDS011;28229;48.856;9.088;2022-09-21T20:40:25;4.43;;;4.03;;
42600;SDS011;28229;48.856;9.088;2022-09-21T20:42:53;4.30;;;3.90;;
42600;SDS011;28229;48.856;9.088;2022-09-21T20:45:23;5.10;;;4.03;;
42600;SDS011;28229;48.856;9.088;2022-09-21T20:47:50;4.03;;;3.63;;
42600;SDS011;28229;48.856;9.088;2022-09-21T20:50:17;4.77;;;3.70;;
42600;SDS011;28229;48.856;9.088;2022-09-21T20:52:43;3.97;;;3.07;;
42600;SDS011;28229;48.856;9.088;2022-09-21T20:55:11;3.40;;;3.10;;
42600;SDS011;28229;48.856;9.088;2022-09-21T20:57:38;3.40;;;3.10;;
42600;SDS011;28229;48.856;9.088;2022-09-21T21:00:08;3.70;;;3.07;;
42600;SDS011;28229;48.856;9.088;2022-09-21T21:02:37;4.93;;;3.70;;
42600;SDS011;28229;48.856;9.088;2022-09-21T21:05:03;4.20;;;3.80;;
42600;SDS011;28229;48.856;9.088;2022-09-21T21:07:30;7.50;;;4.47;;
42600;SDS011;28229;48.856;9.088;2022-09-21T21:09:56;4.67;;;4.17;;
42600;SDS011;28229;48.856;9.088;2022-09-21T21:12:23;6.90;;;4.47;;
42600;SDS011;28229;48.856;9.088;2022-09-21T21:14:49;4.60;;;3.63;;
42600;SDS011;28229;48.856;9.088;2022-09-21T21:17:15;4.60;;;4.17;;
42600;SDS011;28229;48.856;9.088;2022-09-21T21:19:41;4.23;;;3.83;;
42600;SDS011;28229;48.856;9.088;2022-09-21T21:22:08;4.30;;;3.30;;
42600;SDS011;28229;48.856;9.088;2022-09-21T21:24:34;4.90;;;3.40;;
42600;SDS011;28229;48.856;9.088;2022-09-21T21:27:07;4.83;;;4.33;;
42600;SDS011;28229;48.856;9.088;2022-09-21T21:29:36;15.27;;;9.83;;
42600;SDS011;28229;48.856;9.088;2022-09-21T21:32:03;13.27;;;9.50;;
42600;SDS011;28229;48.856;9.088;2022-09-21T21:34:29;10.07;;;7.00;;
42600;SDS011;28229;48.856;9.088;2022-09-21T21:36:55;8.33;;;6.13;;
42600;SDS011;28229;48.856;9.088;2022-09-21T21:39:21;10.00;;;5.00;;
42600;SDS011;28229;48.856;9.088;2022-09-21T21:41:47;5.90;;;4.93;;
42600;SDS011;28229;48.856;9.088;2022-09-21T21:44:13;5.10;;;4.10;;
42600;SDS011;28229;48.856;9.088;2022-09-21T21:46:40;5.83;;;4.27;;